Coaldale, West Virginia
Current Conditions -  °F | °C
As of 4:52 AM on Friday 24 Oct 2014 (Local Time) from KBLF Reporting Station
Clear Clear  
Wind Chill: 35°   Ceiling: Unl
Heat Index: 39°   Visibility: 10mi
Dew Point: 36°   Wind: 6mph
Humidity: 89%   Direction: 260°W
Pressure: 30.11"   Gusts: NA
Location:  37.3633°N, 81.3346°W
Report Text: KBLF 240852Z AUTO 26005KT 10SM CLR 04/02 A3011 RMK AO2 SLP196 T00390022 50001
Loading
Personal Weather Stations






























Interactive Weather Map
Tropical Storm Tracking
New forecast layout! Learn more

10-Day Weather Forecast

Advertisements
Track Severe Weather on mobile